createdAt,value
2023-08-14T00:01:22.737Z,4.68
2023-08-14T00:06:26.814Z,4.45
2023-08-14T00:11:30.894Z,4.20
2023-08-14T00:16:34.799Z,4.30
2023-08-14T00:21:39.086Z,4.30
2023-08-14T00:26:42.952Z,3.95
2023-08-14T00:31:47.692Z,4.32
2023-08-14T00:36:51.773Z,4.93
2023-08-14T00:41:56.420Z,4.47
2023-08-14T00:47:00.555Z,4.40
2023-08-14T00:52:04.767Z,4.43
2023-08-14T00:57:08.881Z,4.55
2023-08-14T01:02:12.971Z,4.85
2023-08-14T01:07:17.255Z,5.47
2023-08-14T01:12:54.478Z,4.57
2023-08-14T01:18:02.761Z,5.18
2023-08-14T01:23:24.162Z,5.13
2023-08-14T01:28:29.658Z,4.47
2023-08-14T01:33:34.724Z,4.30
2023-08-14T01:39:03.143Z,4.25
2023-08-14T01:44:12.416Z,4.65
2023-08-14T01:49:19.533Z,4.50
2023-08-14T01:54:23.566Z,5.28
2023-08-14T01:59:46.153Z,4.60
2023-08-14T02:04:52.262Z,3.97
2023-08-14T02:09:58.082Z,4.78
2023-08-14T02:15:03.298Z,4.10
2023-08-14T02:20:10.177Z,4.13
2023-08-14T02:25:14.173Z,4.38
2023-08-14T02:30:18.386Z,5.20
2023-08-14T02:35:22.636Z,6.40
2023-08-14T02:40:26.648Z,7.18
2023-08-14T02:45:31.871Z,6.43
2023-08-14T02:50:35.825Z,7.38
2023-08-14T02:55:40.087Z,6.53
2023-08-14T03:00:44.145Z,6.40
2023-08-14T03:05:48.389Z,6.05
2023-08-14T03:10:52.658Z,6.53
2023-08-14T03:15:56.947Z,8.18
2023-08-14T03:21:01.241Z,7.60
2023-08-14T03:26:06.831Z,11.75
2023-08-14T03:31:11.634Z,11.15
2023-08-14T03:36:15.675Z,11.90
2023-08-14T03:41:21.498Z,12.90
2023-08-14T03:46:25.501Z,12.70
2023-08-14T03:51:29.625Z,12.45
2023-08-14T03:56:33.534Z,12.05
2023-08-14T04:01:39.843Z,11.85
2023-08-14T04:06:46.260Z,11.30
2023-08-14T04:11:50.838Z,11.02
2023-08-14T04:16:56.179Z,10.75
2023-08-14T04:22:00.262Z,10.77
2023-08-14T04:27:04.303Z,9.20
2023-08-14T04:32:49.710Z,10.55
2023-08-14T04:37:53.790Z,9.40
2023-08-14T04:42:58.070Z,9.38
2023-08-14T04:48:02.356Z,10.48
2023-08-14T04:53:08.428Z,10.95
2023-08-14T04:58:15.541Z,10.82
2023-08-14T05:03:19.781Z,8.98
2023-08-14T05:08:23.882Z,9.38
2023-08-14T05:13:28.094Z,9.20
2023-08-14T05:18:32.302Z,8.52
2023-08-14T05:23:36.371Z,8.60
2023-08-14T05:28:40.656Z,9.60
2023-08-14T05:33:44.623Z,10.95
2023-08-14T05:38:48.760Z,9.95
2023-08-14T05:43:52.870Z,10.52
2023-08-14T05:48:56.983Z,11.20
2023-08-14T05:54:01.190Z,10.05
2023-08-14T05:59:05.349Z,10.10
2023-08-14T06:04:09.461Z,9.70
2023-08-14T06:09:17.918Z,10.45
2023-08-14T06:14:22.521Z,10.15
2023-08-14T06:19:26.651Z,9.50
2023-08-14T06:24:31.516Z,8.82
2023-08-14T06:29:35.469Z,8.88
2023-08-14T06:34:39.746Z,9.60
2023-08-14T06:39:44.275Z,9.02
2023-08-14T06:44:48.360Z,9.15
2023-08-14T06:49:52.710Z,8.68
2023-08-14T06:54:56.732Z,8.68
2023-08-14T07:00:14.027Z,8.32
2023-08-14T07:05:18.184Z,8.77
2023-08-14T07:10:22.358Z,8.15
2023-08-14T07:15:28.097Z,8.48
2023-08-14T07:20:32.457Z,8.77
2023-08-14T07:25:36.436Z,7.28
2023-08-14T07:30:41.676Z,6.63
2023-08-14T07:35:45.886Z,7.10
2023-08-14T07:40:50.099Z,6.13
2023-08-14T07:45:54.474Z,6.82
2023-08-14T07:50:58.590Z,5.97
2023-08-14T07:56:05.225Z,5.65
2023-08-14T08:01:12.760Z,4.88
2023-08-14T08:06:16.801Z,4.85
2023-08-14T08:11:20.959Z,4.68
2023-08-14T08:16:25.008Z,4.97
2023-08-14T08:21:29.952Z,4.57
2023-08-14T08:26:33.880Z,4.47
2023-08-14T08:31:38.155Z,4.82
2023-08-14T08:36:42.278Z,4.13
2023-08-14T08:41:48.473Z,4.10
2023-08-14T08:47:05.389Z,4.00
2023-08-14T08:52:10.236Z,3.95
2023-08-14T08:57:14.502Z,3.35
2023-08-14T09:02:19.138Z,3.55
2023-08-14T09:07:23.678Z,4.03
2023-08-14T09:12:27.976Z,4.90
2023-08-14T09:17:32.626Z,3.85
2023-08-14T09:22:40.342Z,6.95
2023-08-14T09:27:45.113Z,10.57
2023-08-14T09:32:49.520Z,5.57
2023-08-14T09:37:53.910Z,4.15
2023-08-14T09:43:01.910Z,5.00
2023-08-14T09:48:06.727Z,4.47
2023-08-14T09:53:11.170Z,4.35
2023-08-14T09:58:15.172Z,4.38
2023-08-14T10:03:21.238Z,4.68
2023-08-14T10:08:25.501Z,5.40
2023-08-14T10:13:30.441Z,4.70
2023-08-14T10:18:40.083Z,4.47
2023-08-14T10:28:49.960Z,4.35
2023-08-14T10:33:54.964Z,4.10
2023-08-14T10:39:10.649Z,4.00
2023-08-14T10:44:14.897Z,3.53
2023-08-14T10:49:19.095Z,3.97
2023-08-14T10:54:25.405Z,4.60
2023-08-14T10:59:30.215Z,4.07
2023-08-14T11:04:38.557Z,3.70
2023-08-14T11:09:48.521Z,3.25
2023-08-14T11:14:52.951Z,3.10
2023-08-14T11:19:57.056Z,3.10
2023-08-14T11:25:01.250Z,2.88
2023-08-14T11:30:08.998Z,3.38
2023-08-14T11:40:29.505Z,3.50
2023-08-14T11:45:34.072Z,4.10
2023-08-14T11:50:37.967Z,3.42
2023-08-14T11:55:42.360Z,4.07
2023-08-14T12:00:52.473Z,3.45
2023-08-14T12:06:05.897Z,3.40
2023-08-14T12:11:11.294Z,3.60
2023-08-14T12:16:19.014Z,3.38
2023-08-14T12:21:29.513Z,3.17
2023-08-14T12:26:45.480Z,2.95
2023-08-14T12:31:49.606Z,2.90
2023-08-14T12:36:53.834Z,3.10
2023-08-14T12:41:58.343Z,3.08
2023-08-14T12:47:02.583Z,3.60
2023-08-14T12:52:10.109Z,3.45
2023-08-14T12:57:17.905Z,3.22
2023-08-14T13:02:25.530Z,3.17
2023-08-14T13:07:30.868Z,3.83
2023-08-14T13:12:35.193Z,4.18
2023-08-14T13:17:39.374Z,4.43
2023-08-14T13:22:43.696Z,4.10
2023-08-14T13:27:48.013Z,4.15
2023-08-14T13:32:52.060Z,4.40
2023-08-14T13:37:56.103Z,6.80
2023-08-14T13:43:00.241Z,8.02
2023-08-14T13:48:04.538Z,6.72
2023-08-14T13:53:08.726Z,6.43
2023-08-14T13:58:13.080Z,6.68
2023-08-14T14:03:17.117Z,6.45
2023-08-14T14:08:23.758Z,7.13
2023-08-14T14:13:28.038Z,7.07
2023-08-14T14:18:32.250Z,7.72
2023-08-14T14:23:36.171Z,7.28
2023-08-14T14:28:40.545Z,7.30
2023-08-14T14:33:44.517Z,8.05
2023-08-14T14:38:48.524Z,7.75
2023-08-14T14:43:52.777Z,6.88
2023-08-14T14:48:56.741Z,6.90
2023-08-14T14:54:00.790Z,6.63
2023-08-14T14:59:04.752Z,9.20
2023-08-14T15:04:08.912Z,12.10
2023-08-14T15:09:13.256Z,18.30
2023-08-14T15:14:17.571Z,14.88
2023-08-14T15:19:22.253Z,14.25
2023-08-14T15:24:26.314Z,16.50
2023-08-14T15:29:30.365Z,12.35
2023-08-14T15:34:34.561Z,16.02
2023-08-14T15:39:39.606Z,20.80
2023-08-14T15:44:43.706Z,18.85
2023-08-14T15:49:47.774Z,9.32
2023-08-14T15:54:53.894Z,8.15
2023-08-14T15:59:58.289Z,6.22
2023-08-14T16:05:02.574Z,11.43
2023-08-14T16:10:08.371Z,15.10
2023-08-14T16:15:14.919Z,14.02
2023-08-14T16:20:18.903Z,13.57
2023-08-14T16:25:23.062Z,11.95
2023-08-14T16:30:27.010Z,11.55
2023-08-14T16:35:31.276Z,9.40
2023-08-14T16:40:41.677Z,6.47
2023-08-14T16:45:50.445Z,3.60
2023-08-14T16:50:55.388Z,3.03
2023-08-14T16:55:59.504Z,2.53
2023-08-14T17:01:03.673Z,2.50
2023-08-14T17:06:26.711Z,3.20
2023-08-14T17:11:49.664Z,3.22
2023-08-14T17:16:54.258Z,4.32
2023-08-14T17:21:58.265Z,4.82
2023-08-14T17:27:02.446Z,3.85
2023-08-14T17:32:06.785Z,3.30
2023-08-14T17:37:35.415Z,1.85
2023-08-14T17:42:40.514Z,3.05
2023-08-14T17:47:44.654Z,2.70
2023-08-14T17:52:48.576Z,2.22
2023-08-14T17:57:52.660Z,2.53
2023-08-14T18:02:56.594Z,2.08
2023-08-14T18:08:00.850Z,2.13
2023-08-14T18:13:05.349Z,1.92
2023-08-14T18:18:10.071Z,2.20
2023-08-14T18:23:14.095Z,2.22
2023-08-14T18:28:17.970Z,2.65
2023-08-14T18:33:22.108Z,2.30
2023-08-14T18:38:27.013Z,2.33
2023-08-14T18:43:31.115Z,2.50
2023-08-14T18:48:35.311Z,2.60
2023-08-14T18:53:39.372Z,2.35
2023-08-14T18:58:43.801Z,2.42
2023-08-14T19:03:47.743Z,2.60
2023-08-14T19:08:51.848Z,2.67
2023-08-14T19:13:55.916Z,2.28
2023-08-14T19:19:00.237Z,2.92
2023-08-14T19:24:04.646Z,2.33
2023-08-14T19:29:08.706Z,2.33
2023-08-14T19:34:12.828Z,2.20
2023-08-14T19:39:19.100Z,2.50
2023-08-14T19:44:32.317Z,2.35
2023-08-14T19:49:36.312Z,2.65
2023-08-14T19:54:40.459Z,2.40
2023-08-14T19:59:44.476Z,2.92
2023-08-14T20:04:50.767Z,2.72
2023-08-14T20:09:55.143Z,2.30
2023-08-14T20:14:59.564Z,2.13
2023-08-14T20:20:04.187Z,2.25
2023-08-14T20:25:08.694Z,2.08
2023-08-14T20:30:13.588Z,2.00
2023-08-14T20:35:17.465Z,2.00
2023-08-14T20:40:21.672Z,2.20
2023-08-14T20:45:25.649Z,2.38
2023-08-14T20:50:29.936Z,2.22
2023-08-14T20:55:35.362Z,2.00
2023-08-14T21:00:42.390Z,1.92
2023-08-14T21:05:47.749Z,1.90
2023-08-14T21:10:51.810Z,2.20
2023-08-14T21:16:00.372Z,1.98
2023-08-14T21:21:05.698Z,2.47
2023-08-14T21:26:09.563Z,1.70
2023-08-14T21:31:13.871Z,2.05
2023-08-14T21:36:17.910Z,2.00
2023-08-14T21:41:21.953Z,1.92
2023-08-14T21:46:26.050Z,2.00
2023-08-14T21:51:30.323Z,1.70
2023-08-14T21:56:34.552Z,1.85
2023-08-14T22:01:38.658Z,2.20
2023-08-14T22:06:42.715Z,1.92
2023-08-14T22:11:46.625Z,1.95
2023-08-14T22:16:52.814Z,1.98
2023-08-14T22:21:57.141Z,1.63
2023-08-14T22:27:03.409Z,1.90
2023-08-14T22:32:07.450Z,1.92
2023-08-14T22:37:11.757Z,2.38
2023-08-14T22:42:25.124Z,2.22
2023-08-14T22:47:29.071Z,1.95
2023-08-14T22:52:33.367Z,1.80
2023-08-14T22:57:37.343Z,2.00
2023-08-14T23:02:41.623Z,2.25
2023-08-14T23:07:45.604Z,1.90
2023-08-14T23:12:49.712Z,1.98
2023-08-14T23:17:53.896Z,2.30
2023-08-14T23:22:58.052Z,2.00
2023-08-14T23:28:02.224Z,2.40
2023-08-14T23:33:07.744Z,1.92
2023-08-14T23:38:11.954Z,2.10
2023-08-14T23:43:15.842Z,2.05
2023-08-14T23:48:20.173Z,1.73
2023-08-14T23:53:24.659Z,1.88
2023-08-14T23:58:28.600Z,2.00
